Time;durP1;ratioP1;P1;durP2;ratioP2;P2;SDS_P1;SDS_P2;PMS_P1;PMS_P2;Temp;Humidity;BMP_temperature;BMP_pressure;BME280_temperature;BME280_humidity;BME280_pressure;Samples;Min_cycle;Max_cycle;Signal;HPM_P1;HPM_P2
2022/08/13 00:02:16;;;;;;;3.95;2.38;;;19.80;99.90;;;;;;4979372;28;20046;-75
2022/08/13 00:04:56;;;;;;;3.72;2.50;;;19.90;99.90;;;;;;4996735;28;20042;-76
2022/08/13 00:07:22;;;;;;;4.25;2.40;;;19.90;99.90;;;;;;4996225;28;20042;-75
2022/08/13 00:09:49;;;;;;;3.17;2.22;;;19.90;99.90;;;;;;4979853;28;20396;-75
2022/08/13 00:15:26;;;;;;;3.33;2.97;;;19.80;99.90;;;;;;4996875;28;20066;-75
2022/08/13 00:17:52;;;;;;;3.95;2.60;;;19.80;99.90;;;;;;4994498;28;20086;-74
2022/08/13 00:20:20;;;;;;;3.40;2.83;;;19.70;99.90;;;;;;4996202;28;20054;-74
2022/08/13 00:22:47;;;;;;;3.03;2.25;;;19.60;99.90;;;;;;4996493;28;20078;-73
2022/08/13 00:25:13;;;;;;;5.25;2.60;;;19.50;99.90;;;;;;4996222;28;20046;-74
2022/08/13 00:27:39;;;;;;;5.25;2.90;;;19.40;99.90;;;;;;4996640;28;20046;-74
2022/08/13 00:30:07;;;;;;;3.00;2.63;;;19.40;99.90;;;;;;4996426;28;20153;-73
2022/08/13 00:32:33;;;;;;;5.18;3.38;;;19.30;99.90;;;;;;4996339;28;20061;-74
2022/08/13 00:35:01;;;;;;;2.85;2.30;;;19.30;99.90;;;;;;4978638;28;20046;-72
2022/08/13 00:37:27;;;;;;;2.63;2.30;;;19.30;99.90;;;;;;4996086;28;20050;-74
2022/08/13 00:39:53;;;;;;;3.22;2.67;;;19.20;99.90;;;;;;4978844;28;20121;-74
2022/08/13 00:42:25;;;;;;;4.57;2.63;;;19.20;99.90;;;;;;4995914;28;20053;-76
2022/08/13 00:44:52;;;;;;;3.33;2.33;;;19.20;99.90;;;;;;4996015;28;20093;-76
2022/08/13 00:50:05;;;;;;;3.08;2.78;;;19.10;99.90;;;;;;4981577;28;20137;-76
2022/08/13 00:52:40;;;;;;;4.28;2.38;;;19.10;99.90;;;;;;4995952;28;20046;-74
2022/08/13 00:55:10;;;;;;;3.83;2.60;;;19.10;99.90;;;;;;4996400;28;20069;-74
2022/08/13 00:57:36;;;;;;;3.45;3.15;;;19.10;99.90;;;;;;4996092;28;20050;-74
2022/08/13 01:00:12;;;;;;;5.57;2.90;;;19.10;99.90;;;;;;4994878;28;20126;-74
2022/08/13 01:02:43;;;;;;;8.38;3.28;;;19.10;99.90;;;;;;4996074;28;20042;-74
2022/08/13 01:05:09;;;;;;;3.70;3.35;;;19.10;99.90;;;;;;4995480;28;20078;-74
2022/08/13 01:07:41;;;;;;;3.53;3.03;;;19.00;99.90;;;;;;4995685;28;20054;-75
2022/08/13 01:10:11;;;;;;;6.38;3.75;;;19.00;99.90;;;;;;4995331;28;20056;-75
2022/08/13 01:12:39;;;;;;;5.25;3.38;;;19.00;99.90;;;;;;4978616;28;20097;-75
2022/08/13 01:15:07;;;;;;;4.95;2.53;;;18.90;99.90;;;;;;4978072;28;20069;-75
2022/08/13 01:17:35;;;;;;;3.97;2.95;;;18.80;99.90;;;;;;4995472;28;20046;-75
2022/08/13 01:20:02;;;;;;;3.00;2.40;;;18.70;99.90;;;;;;4995138;28;20054;-75
2022/08/13 01:22:29;;;;;;;5.72;3.20;;;18.70;99.90;;;;;;4994883;28;20093;-75
2022/08/13 01:24:55;;;;;;;2.55;2.35;;;18.60;99.90;;;;;;4995107;28;20082;-75
2022/08/13 01:27:25;;;;;;;4.25;2.90;;;18.60;99.90;;;;;;4993813;28;20101;-75
2022/08/13 01:29:51;;;;;;;4.10;3.30;;;18.60;99.90;;;;;;4994980;28;20065;-76
2022/08/13 01:32:19;;;;;;;5.40;3.40;;;18.60;99.90;;;;;;4994772;28;20046;-76
2022/08/13 01:34:47;;;;;;;4.07;3.50;;;18.60;99.90;;;;;;4994753;28;20046;-75
2022/08/13 01:37:15;;;;;;;5.10;3.47;;;18.50;99.90;;;;;;4977715;28;20050;-75
2022/08/13 01:39:41;;;;;;;4.38;3.97;;;18.50;99.90;;;;;;4994816;28;20046;-75
2022/08/13 01:42:21;;;;;;;4.63;3.13;;;18.50;99.90;;;;;;4994987;28;20069;-75
2022/08/13 01:44:50;;;;;;;5.38;4.32;;;18.50;99.90;;;;;;4995107;28;20069;-75
2022/08/13 01:52:46;;;;;;;5.53;3.50;;;18.30;99.90;;;;;;4994410;28;20125;-76
2022/08/13 01:55:13;;;;;;;4.47;3.85;;;18.20;99.90;;;;;;4994188;28;20054;-75
2022/08/13 01:57:40;;;;;;;3.95;3.33;;;18.20;99.90;;;;;;4993738;28;20355;-75
2022/08/13 02:00:13;;;;;;;3.85;3.22;;;18.10;99.90;;;;;;4977506;28;20057;-75
2022/08/13 02:02:42;;;;;;;7.68;4.15;;;18.10;99.90;;;;;;4995185;28;20132;-75
2022/08/13 02:05:12;;;;;;;3.95;3.63;;;18.00;99.90;;;;;;4994687;28;20053;-75
2022/08/13 02:07:43;;;;;;;5.00;3.85;;;18.00;99.90;;;;;;4994564;28;20147;-76
2022/08/13 02:10:09;;;;;;;5.47;4.20;;;18.00;99.90;;;;;;4994120;28;20056;-75
2022/08/13 02:12:38;;;;;;;4.85;3.70;;;18.00;99.90;;;;;;4976374;28;20136;-75
2022/08/13 02:15:06;;;;;;;5.38;4.28;;;18.00;99.90;;;;;;4993994;28;20129;-75
2022/08/13 02:17:41;;;;;;;6.97;4.10;;;17.90;99.90;;;;;;4994609;28;20058;-75
2022/08/13 02:20:11;;;;;;;6.20;3.63;;;17.90;99.90;;;;;;4993966;28;20193;-75
2022/08/13 02:22:37;;;;;;;5.95;5.30;;;17.90;99.90;;;;;;4994675;28;20054;-75
2022/08/13 02:25:04;;;;;;;7.03;3.83;;;17.90;99.90;;;;;;4993864;28;20049;-75
2022/08/13 02:27:29;;;;;;;5.25;3.65;;;17.80;99.90;;;;;;4994119;28;20126;-75
2022/08/13 02:29:57;;;;;;;4.43;3.95;;;17.80;99.90;;;;;;4994585;28;20081;-74
2022/08/13 02:32:23;;;;;;;6.80;4.68;;;17.70;99.90;;;;;;4976978;28;20077;-75
2022/08/13 02:34:50;;;;;;;4.57;3.90;;;17.70;99.90;;;;;;4993942;28;20046;-75
2022/08/13 02:37:21;;;;;;;5.40;4.18;;;17.60;99.90;;;;;;4993848;28;20057;-75
2022/08/13 02:39:51;;;;;;;4.68;3.83;;;17.60;99.90;;;;;;4993887;28;20047;-75
2022/08/13 02:42:18;;;;;;;4.72;3.97;;;17.60;99.90;;;;;;4993723;28;20046;-75
2022/08/13 02:44:47;;;;;;;8.32;4.13;;;17.60;99.90;;;;;;4994002;28;20089;-75
2022/08/13 02:47:18;;;;;;;5.72;4.82;;;17.60;99.90;;;;;;4993781;28;20066;-75
2022/08/13 02:49:44;;;;;;;6.05;3.90;;;17.60;99.90;;;;;;4994124;28;20050;-75
2022/08/13 02:52:11;;;;;;;4.85;4.30;;;17.50;99.90;;;;;;4994177;28;20469;-75
2022/08/13 02:54:42;;;;;;;7.50;5.85;;;17.50;99.90;;;;;;4994085;28;20077;-75
2022/08/13 02:57:09;;;;;;;5.03;4.50;;;17.40;99.90;;;;;;4976436;28;20140;-75
2022/08/13 02:59:35;;;;;;;5.85;3.92;;;17.40;99.90;;;;;;4993429;28;20050;-75
2022/08/13 03:02:04;;;;;;;6.65;5.25;;;17.40;99.90;;;;;;4993559;28;20046;-75
2022/08/13 03:04:30;;;;;;;6.50;3.95;;;17.30;99.90;;;;;;4993392;28;20101;-76
2022/08/13 03:06:57;;;;;;;5.90;4.43;;;17.30;99.90;;;;;;4993487;28;20054;-75
2022/08/13 03:09:23;;;;;;;6.22;4.50;;;17.30;99.90;;;;;;4993760;28;20122;-75
2022/08/13 03:11:49;;;;;;;8.25;5.40;;;17.30;99.90;;;;;;4976048;28;20046;-75
2022/08/13 03:14:16;;;;;;;7.00;5.47;;;17.30;99.90;;;;;;4993613;28;20398;-75
2022/08/13 03:16:42;;;;;;;10.90;5.72;;;17.30;99.90;;;;;;4976170;28;20129;-76
2022/08/13 03:19:08;;;;;;;6.40;5.05;;;17.30;99.90;;;;;;4975863;28;20133;-75
2022/08/13 03:21:38;;;;;;;5.80;4.80;;;17.20;99.90;;;;;;4993377;28;20133;-76
2022/08/13 03:24:05;;;;;;;7.85;5.22;;;17.20;99.90;;;;;;4993099;28;20038;-76
2022/08/13 03:26:31;;;;;;;6.28;4.68;;;17.20;99.90;;;;;;4993240;28;20061;-76
2022/08/13 03:28:58;;;;;;;5.65;5.15;;;17.20;99.90;;;;;;4993190;28;20392;-76
2022/08/13 03:31:24;;;;;;;5.60;4.82;;;17.20;99.90;;;;;;4993377;28;20053;-75
2022/08/13 03:33:53;;;;;;;4.70;3.90;;;17.20;99.90;;;;;;4993183;28;20050;-76
2022/08/13 03:36:20;;;;;;;6.07;4.95;;;17.20;99.90;;;;;;4992477;28;20053;-75
2022/08/13 03:38:46;;;;;;;8.80;4.97;;;17.20;99.90;;;;;;4976072;28;20089;-75
2022/08/13 03:41:14;;;;;;;5.13;4.63;;;17.20;99.90;;;;;;4991912;28;20510;-76
2022/08/13 03:43:47;;;;;;;6.70;5.20;;;17.20;99.90;;;;;;4993690;28;20126;-76
2022/08/13 03:46:18;;;;;;;6.25;4.32;;;17.20;99.90;;;;;;4993179;28;20081;-76
2022/08/13 03:48:47;;;;;;;6.05;5.47;;;17.10;99.90;;;;;;4993089;28;20057;-76
2022/08/13 03:51:14;;;;;;;5.82;4.18;;;17.10;99.90;;;;;;4975824;28;20490;-75
2022/08/13 03:53:41;;;;;;;7.55;5.05;;;17.10;99.90;;;;;;4959641;28;20478;-76
2022/08/13 03:56:08;;;;;;;6.32;4.93;;;17.10;99.90;;;;;;4992663;28;20507;-76
2022/08/13 03:58:34;;;;;;;8.32;5.57;;;17.00;99.90;;;;;;4993044;28;20073;-76
2022/08/13 04:01:02;;;;;;;6.13;5.53;;;17.00;99.90;;;;;;4992471;28;20490;-76
2022/08/13 04:03:30;;;;;;;10.55;4.82;;;17.00;99.90;;;;;;4992945;28;20043;-76
2022/08/13 04:06:01;;;;;;;9.98;5.93;;;17.00;99.90;;;;;;4976188;28;20046;-76
2022/08/13 04:08:29;;;;;;;6.40;5.13;;;16.90;99.90;;;;;;4993327;28;20050;-76
2022/08/13 04:10:56;;;;;;;6.45;5.35;;;16.90;99.90;;;;;;4975579;28;20503;-76
2022/08/13 04:13:25;;;;;;;4.93;4.18;;;16.90;99.90;;;;;;4992756;28;20632;-75
2022/08/13 04:15:51;;;;;;;5.88;5.30;;;16.80;99.90;;;;;;4992760;28;20054;-75
2022/08/13 04:18:17;;;;;;;6.10;4.95;;;16.80;99.90;;;;;;4992765;28;20046;-75
2022/08/13 04:20:49;;;;;;;8.60;6.15;;;16.80;99.90;;;;;;4992237;28;20058;-75
2022/08/13 04:23:16;;;;;;;7.43;5.22;;;16.80;99.90;;;;;;4975764;28;20054;-75
2022/08/13 04:25:44;;;;;;;5.30;4.72;;;16.80;99.90;;;;;;4992898;28;20081;-75
2022/08/13 04:28:11;;;;;;;5.00;4.55;;;16.80;99.90;;;;;;4992700;28;20072;-75
2022/08/13 04:30:40;;;;;;;5.95;5.35;;;16.80;99.90;;;;;;4993047;28;20046;-75
2022/08/13 04:33:11;;;;;;;6.43;5.00;;;16.80;99.90;;;;;;4993047;28;20050;-76
2022/08/13 04:35:37;;;;;;;6.32;5.70;;;16.80;99.90;;;;;;4978437;28;20046;-75
2022/08/13 04:38:05;;;;;;;8.32;5.03;;;16.80;99.90;;;;;;4978996;28;20061;-75
2022/08/13 04:40:36;;;;;;;7.40;5.38;;;16.80;99.90;;;;;;4996633;28;20146;-76
2022/08/13 04:43:02;;;;;;;7.32;4.72;;;16.80;99.90;;;;;;4996163;28;20112;-75
2022/08/13 04:45:29;;;;;;;6.00;5.40;;;16.80;99.90;;;;;;4996080;28;20050;-75
2022/08/13 04:47:59;;;;;;;7.53;5.35;;;16.80;99.90;;;;;;4978671;28;20486;-75
2022/08/13 04:50:27;;;;;;;6.95;4.72;;;16.90;99.90;;;;;;4996010;28;20084;-76
2022/08/13 04:52:53;;;;;;;4.78;4.20;;;16.90;99.90;;;;;;4995724;28;20053;-75
2022/08/13 04:55:19;;;;;;;10.75;5.53;;;16.90;99.90;;;;;;4978752;28;20042;-75
2022/08/13 04:57:44;;;;;;;7.95;6.22;;;17.00;99.90;;;;;;4996237;28;20054;-76
2022/08/13 05:00:11;;;;;;;7.63;6.25;;;17.00;99.90;;;;;;4995775;28;20078;-76
2022/08/13 05:02:40;;;;;;;8.88;7.43;;;17.10;99.90;;;;;;4995684;28;20069;-76
2022/08/13 05:05:07;;;;;;;8.02;6.00;;;17.10;99.90;;;;;;4996093;28;20077;-76
2022/08/13 05:07:34;;;;;;;7.53;6.68;;;17.10;99.90;;;;;;4995226;28;20405;-76
2022/08/13 05:10:00;;;;;;;10.75;5.57;;;17.20;99.90;;;;;;4995659;28;20501;-76
2022/08/13 05:12:26;;;;;;;7.18;6.53;;;17.20;99.90;;;;;;4995439;28;20478;-76
2022/08/13 05:14:52;;;;;;;10.30;7.10;;;17.20;99.90;;;;;;4978059;28;20045;-75
2022/08/13 05:17:18;;;;;;;8.43;6.53;;;17.30;99.90;;;;;;4995740;28;20050;-75
2022/08/13 05:19:46;;;;;;;8.98;7.00;;;17.30;99.90;;;;;;4994763;28;20088;-76
2022/08/13 05:22:12;;;;;;;6.68;5.82;;;17.40;99.90;;;;;;4995214;28;20051;-76
2022/08/13 05:24:37;;;;;;;9.75;7.85;;;17.40;99.90;;;;;;4995320;28;20046;-76
2022/08/13 05:27:04;;;;;;;10.00;6.03;;;17.40;99.90;;;;;;4995330;28;20053;-76
2022/08/13 05:29:29;;;;;;;7.38;5.85;;;17.50;99.90;;;;;;4994654;28;20042;-76
2022/08/13 05:31:56;;;;;;;7.70;6.65;;;17.60;99.90;;;;;;4995001;28;20052;-75
2022/08/13 05:34:24;;;;;;;12.00;6.75;;;17.60;99.90;;;;;;4995066;28;20097;-76
2022/08/13 05:36:52;;;;;;;9.55;7.03;;;17.70;99.90;;;;;;4994794;28;20046;-76
2022/08/13 05:39:18;;;;;;;6.93;5.93;;;17.80;99.90;;;;;;4994690;28;20105;-76
2022/08/13 05:41:46;;;;;;;9.52;7.53;;;17.80;99.90;;;;;;4994806;28;20117;-76
2022/08/13 05:44:12;;;;;;;7.40;6.60;;;17.90;99.90;;;;;;4994443;28;20368;-76
2022/08/13 05:46:38;;;;;;;7.82;6.53;;;18.00;99.90;;;;;;4994727;28;20054;-76
2022/08/13 05:49:04;;;;;;;9.48;6.97;;;18.00;99.90;;;;;;4994555;28;20481;-76
2022/08/13 05:51:33;;;;;;;9.48;6.95;;;18.20;99.90;;;;;;4977331;28;20113;-76
2022/08/13 05:54:00;;;;;;;11.75;7.57;;;18.20;99.90;;;;;;4994509;28;20046;-76
2022/08/13 05:56:36;;;;;;;6.65;5.68;;;18.30;99.90;;;;;;4994654;28;20050;-76
2022/08/13 05:59:06;;;;;;;8.00;6.68;;;18.40;99.90;;;;;;4994287;28;20052;-76
2022/08/13 06:04:19;;;;;;;6.25;5.65;;;18.70;99.90;;;;;;4994361;28;20097;-76
2022/08/13 06:06:46;;;;;;;13.40;6.72;;;18.70;99.90;;;;;;4994150;28;20484;-76
2022/08/13 06:09:13;;;;;;;13.45;7.10;;;18.80;99.90;;;;;;4994553;28;20078;-76
2022/08/13 06:11:43;;;;;;;8.07;6.10;;;18.90;99.90;;;;;;4994276;28;20053;-76
2022/08/13 06:14:16;;;;;;;6.72;6.00;;;19.00;99.90;;;;;;4994347;28;20575;-76
2022/08/13 06:16:42;;;;;;;7.05;6.35;;;19.10;99.90;;;;;;4994672;28;20070;-76
2022/08/13 06:19:14;;;;;;;8.07;6.70;;;19.20;99.90;;;;;;4994189;28;20500;-76
2022/08/13 06:21:40;;;;;;;9.00;6.55;;;19.30;99.90;;;;;;4994680;28;20062;-76
2022/08/13 06:24:05;;;;;;;6.53;5.88;;;19.40;99.90;;;;;;4976722;28;20482;-76
2022/08/13 06:26:31;;;;;;;7.93;6.22;;;19.60;99.90;;;;;;4993925;28;20091;-76
2022/08/13 06:29:01;;;;;;;9.55;5.97;;;19.60;99.90;;;;;;4994313;28;20054;-78
2022/08/13 06:31:28;;;;;;;7.63;6.53;;;19.80;99.90;;;;;;4977409;28;20057;-78
2022/08/13 06:33:57;;;;;;;6.50;5.90;;;19.90;99.90;;;;;;4993679;28;20081;-76
2022/08/13 06:36:29;;;;;;;8.40;6.32;;;20.00;99.90;;;;;;4993824;28;20054;-78
2022/08/13 06:38:59;;;;;;;6.63;6.03;;;20.10;99.90;;;;;;4994423;28;20098;-78
2022/08/13 06:41:25;;;;;;;12.05;6.72;;;20.30;99.90;;;;;;4976757;28;20050;-77
2022/08/13 06:43:53;;;;;;;7.00;6.30;;;20.40;99.90;;;;;;4994068;28;20050;-82
2022/08/13 06:46:25;;;;;;;7.43;5.68;;;20.60;99.90;;;;;;4993814;28;20061;-82
2022/08/13 06:48:52;;;;;;;10.43;6.43;;;20.80;99.90;;;;;;4994096;28;20042;-80
2022/08/13 06:51:18;;;;;;;6.75;6.15;;;20.90;99.90;;;;;;4976649;28;20052;-78
2022/08/13 06:53:46;;;;;;;6.97;5.97;;;21.00;99.90;;;;;;4976623;28;20046;-82
2022/08/13 06:56:23;;;;;;;10.73;6.35;;;21.20;99.90;;;;;;4993283;28;20513;-80
2022/08/13 06:58:51;;;;;;;7.55;5.68;;;21.50;99.90;;;;;;4976565;28;20051;-78
2022/08/13 07:01:22;;;;;;;6.72;5.65;;;22.70;99.90;;;;;;4993362;28;20550;-84
2022/08/13 07:03:49;;;;;;;7.35;5.05;;;24.30;99.00;;;;;;4993516;28;20046;-79
2022/08/13 07:06:19;;;;;;;8.63;5.38;;;25.60;96.60;;;;;;4993797;28;20058;-79
2022/08/13 07:08:46;;;;;;;6.35;5.43;;;26.80;95.00;;;;;;4993802;28;20057;-81
2022/08/13 07:11:24;;;;;;;5.32;4.75;;;27.60;93.50;;;;;;4993475;28;20050;-82
2022/08/13 07:13:57;;;;;;;5.70;4.35;;;28.40;92.30;;;;;;4976226;28;20049;-78
2022/08/13 07:16:25;;;;;;;8.02;4.10;;;29.30;91.00;;;;;;4993825;28;20390;-82
2022/08/13 07:18:52;;;;;;;4.68;4.10;;;29.90;89.70;;;;;;4993015;28;20042;-79
2022/08/13 07:21:20;;;;;;;5.55;4.05;;;30.50;86.90;;;;;;4993201;28;20121;-78
2022/08/13 07:23:48;;;;;;;5.15;4.18;;;31.00;84.60;;;;;;4993267;28;20072;-79
2022/08/13 07:26:16;;;;;;;4.45;3.83;;;31.50;83.20;;;;;;4993399;28;20053;-77
2022/08/13 07:28:44;;;;;;;4.88;3.63;;;31.50;81.00;;;;;;4993628;28;20136;-78
2022/08/13 07:31:11;;;;;;;3.80;3.50;;;31.70;80.10;;;;;;4993789;28;20042;-78
2022/08/13 07:33:42;;;;;;;6.25;3.42;;;32.10;79.40;;;;;;4993144;28;20463;-79
2022/08/13 07:36:12;;;;;;;4.28;3.58;;;32.30;77.30;;;;;;4993234;28;20105;-79
2022/08/13 07:38:38;;;;;;;3.53;3.22;;;32.30;77.00;;;;;;4976321;28;20057;-79
2022/08/13 07:41:05;;;;;;;4.13;2.95;;;32.10;76.20;;;;;;4993063;28;20081;-79
2022/08/13 07:43:39;;;;;;;4.13;2.90;;;32.10;75.90;;;;;;4993288;28;20046;-79
2022/08/13 07:46:10;;;;;;;2.95;2.38;;;32.50;74.60;;;;;;4993599;28;20061;-80
2022/08/13 07:48:41;;;;;;;4.70;2.30;;;32.90;72.10;;;;;;4993697;28;20148;-79
2022/08/13 07:51:19;;;;;;;2.65;2.40;;;33.40;70.30;;;;;;4993137;28;20069;-79
2022/08/13 07:53:50;;;;;;;3.58;2.33;;;33.80;70.60;;;;;;4993524;28;20050;-79
2022/08/13 07:56:28;;;;;;;5.43;2.42;;;34.30;68.90;;;;;;4993692;28;20058;-78
2022/08/13 07:58:58;;;;;;;4.15;2.30;;;34.50;68.40;;;;;;4975962;28;20053;-77
2022/08/13 08:01:27;;;;;;;4.53;2.05;;;34.70;67.10;;;;;;4993221;28;20046;-72
2022/08/13 08:03:54;;;;;;;2.58;1.80;;;35.10;66.00;;;;;;4991454;28;20043;-82
2022/08/13 08:06:20;;;;;;;2.75;1.80;;;35.30;64.80;;;;;;4992850;28;20057;-75
2022/08/13 08:08:47;;;;;;;2.40;1.88;;;35.60;64.30;;;;;;4992758;28;20120;-77
2022/08/13 08:12:30;;;;;;;3.13;1.73;;;35.90;64.20;;;;;;4996318;28;20513;-75
2022/08/13 08:14:02;;;;;;;4.28;2.35;;;36.10;63.20;;;;;;4978897;28;20086;-75
2022/08/13 08:16:30;;;;;;;3.40;1.70;;;36.00;61.60;;;;;;4996183;28;20466;-75
2022/08/13 08:19:00;;;;;;;2.17;1.92;;;36.10;62.00;;;;;;4996055;28;20046;-80
2022/08/13 08:21:28;;;;;;;4.13;2.08;;;36.40;61.60;;;;;;4996088;28;20141;-78
2022/08/13 08:23:59;;;;;;;1.73;1.63;;;36.60;60.80;;;;;;4997785;28;20050;-76
2022/08/13 08:26:30;;;;;;;3.97;1.95;;;36.80;60.10;;;;;;4997430;28;20046;-79
2022/08/13 08:28:59;;;;;;;2.83;2.05;;;36.90;59.00;;;;;;4996363;28;20237;-77
2022/08/13 08:31:26;;;;;;;1.90;1.80;;;37.00;59.20;;;;;;4996246;28;20089;-80
2022/08/13 08:33:54;;;;;;;1.85;1.65;;;37.10;58.60;;;;;;4995983;28;20126;-79
2022/08/13 08:36:20;;;;;;;3.00;1.80;;;36.60;58.20;;;;;;4995809;28;20050;-79
2022/08/13 08:44:23;;;;;;;4.32;1.63;;;36.60;58.40;;;;;;4996211;28;20116;-79
2022/08/13 08:46:53;;;;;;;4.20;2.03;;;37.00;58.20;;;;;;4978613;28;20042;-80
2022/08/13 08:49:21;;;;;;;2.45;1.70;;;37.10;57.50;;;;;;4996132;28;20053;-77
2022/08/13 08:51:49;;;;;;;6.15;1.60;;;37.40;57.00;;;;;;4996008;28;20129;-79
2022/08/13 08:54:16;;;;;;;2.75;1.75;;;37.30;56.80;;;;;;4994198;28;20086;-80
2022/08/13 08:56:42;;;;;;;2.42;1.70;;;37.40;56.80;;;;;;4995627;28;20046;-78
2022/08/13 08:59:10;;;;;;;3.20;1.70;;;37.20;56.40;;;;;;4995971;28;20046;-79
2022/08/13 09:01:35;;;;;;;2.58;1.55;;;37.10;56.10;;;;;;4978911;28;20062;-80
2022/08/13 09:04:05;;;;;;;4.05;1.75;;;36.90;55.90;;;;;;4994172;28;20526;-81
2022/08/13 09:06:31;;;;;;;4.20;1.60;;;36.90;56.00;;;;;;4995690;28;20158;-80
2022/08/13 09:09:00;;;;;;;2.35;1.73;;;37.00;55.60;;;;;;4978304;28;20181;-77
2022/08/13 09:11:29;;;;;;;1.70;1.50;;;37.10;55.10;;;;;;4978472;28;20467;-79
2022/08/13 09:13:55;;;;;;;2.67;1.58;;;37.30;55.10;;;;;;4995420;28;20065;-79
2022/08/13 09:16:23;;;;;;;2.42;1.70;;;37.50;55.00;;;;;;4995870;28;20053;-79
2022/08/13 09:18:50;;;;;;;3.33;1.73;;;37.60;55.10;;;;;;4995241;28;20137;-80
2022/08/13 09:21:17;;;;;;;3.03;1.50;;;37.50;54.90;;;;;;4994884;28;20073;-81
2022/08/13 09:23:46;;;;;;;1.70;1.42;;;37.50;54.50;;;;;;4995102;28;20050;-78
2022/08/13 09:26:17;;;;;;;2.60;1.77;;;37.30;54.20;;;;;;4995083;28;20501;-79
2022/08/13 09:28:45;;;;;;;2.58;1.75;;;37.30;53.90;;;;;;4995045;28;20046;-78
2022/08/13 09:31:10;;;;;;;5.10;1.80;;;37.40;54.00;;;;;;4994825;28;20050;-78
2022/08/13 09:33:40;;;;;;;2.78;1.80;;;37.60;53.70;;;;;;4994662;28;20053;-79
2022/08/13 09:36:09;;;;;;;3.75;1.75;;;37.20;53.80;;;;;;4977472;28;20181;-80
2022/08/13 09:38:36;;;;;;;2.17;1.70;;;37.20;53.00;;;;;;4994896;28;20064;-79
2022/08/13 09:41:24;;;;;;;2.85;1.80;;;37.10;53.10;;;;;;4994976;28;20042;-79
2022/08/13 09:43:50;;;;;;;4.75;1.58;;;37.30;52.70;;;;;;4994734;28;20514;-80
2022/08/13 09:46:17;;;;;;;2.80;1.70;;;37.30;53.10;;;;;;4994906;28;20054;-80
2022/08/13 09:48:43;;;;;;;2.28;1.60;;;37.60;53.20;;;;;;4977898;28;20104;-81
2022/08/13 09:51:13;;;;;;;4.90;1.50;;;37.60;53.30;;;;;;4995006;28;20097;-78
2022/08/13 09:53:40;;;;;;;2.05;1.75;;;37.40;53.10;;;;;;4994778;28;20089;-79
2022/08/13 09:56:06;;;;;;;1.83;1.65;;;37.50;52.90;;;;;;4994876;28;20062;-79
2022/08/13 09:58:32;;;;;;;1.50;1.40;;;37.10;52.20;;;;;;4961102;28;20482;-75
2022/08/13 10:00:58;;;;;;;6.28;1.70;;;37.10;52.40;;;;;;4976412;28;20129;-77
2022/08/13 10:03:24;;;;;;;3.63;2.15;;;37.00;52.00;;;;;;4994532;28;20081;-78
2022/08/13 10:05:51;;;;;;;7.63;1.95;;;37.00;51.80;;;;;;4994336;28;20050;-77
2022/08/13 10:08:18;;;;;;;2.10;1.90;;;37.10;51.90;;;;;;4994778;28;20046;-79
2022/08/13 10:10:46;;;;;;;1.83;1.73;;;37.00;52.00;;;;;;4976976;28;20050;-75
2022/08/13 10:13:13;;;;;;;2.17;1.65;;;37.30;51.70;;;;;;4994765;28;20172;-79
2022/08/13 10:15:39;;;;;;;2.55;1.58;;;37.10;51.40;;;;;;4994433;28;20488;-77
2022/08/13 10:18:05;;;;;;;1.83;1.42;;;37.30;51.50;;;;;;4961096;28;20066;-77
2022/08/13 10:20:39;;;;;;;2.10;1.30;;;37.30;51.80;;;;;;4994396;28;20064;-79
2022/08/13 10:23:07;;;;;;;2.92;1.60;;;37.50;50.70;;;;;;4993994;28;20058;-79
2022/08/13 10:25:33;;;;;;;1.77;1.45;;;37.30;50.90;;;;;;4976611;28;20061;-78
2022/08/13 10:28:17;;;;;;;2.30;1.70;;;37.70;51.20;;;;;;4994292;28;20061;-80
2022/08/13 10:30:43;;;;;;;2.20;1.70;;;37.60;50.70;;;;;;4978954;28;20046;-78
2022/08/13 10:33:10;;;;;;;2.17;1.70;;;37.70;50.90;;;;;;4993546;28;20104;-78
2022/08/13 10:35:36;;;;;;;1.58;1.48;;;37.50;51.00;;;;;;4994033;28;20050;-76
2022/08/13 10:38:01;;;;;;;2.30;1.52;;;37.50;51.00;;;;;;4976531;28;20140;-79
2022/08/13 10:40:28;;;;;;;2.40;1.50;;;37.50;51.00;;;;;;4994085;28;20574;-79
2022/08/13 10:42:54;;;;;;;1.60;1.50;;;37.60;51.00;;;;;;4993353;28;20046;-76
2022/08/13 10:45:24;;;;;;;2.90;1.80;;;37.50;50.50;;;;;;4993367;28;20050;-80
2022/08/13 10:47:52;;;;;;;2.00;1.83;;;37.40;50.40;;;;;;4976463;28;20046;-79
2022/08/13 10:50:21;;;;;;;1.50;1.40;;;37.50;50.40;;;;;;4993710;28;20088;-78
2022/08/13 10:52:47;;;;;;;3.72;2.10;;;37.40;50.20;;;;;;4993053;28;20050;-79
2022/08/13 10:55:14;;;;;;;5.15;1.80;;;37.00;50.00;;;;;;4993088;28;20101;-79
2022/08/13 10:57:45;;;;;;;2.60;1.77;;;36.80;49.80;;;;;;4993336;28;20050;-77
2022/08/13 11:00:14;;;;;;;1.25;1.20;;;36.50;50.00;;;;;;4993276;28;20049;-77
2022/08/13 11:02:40;;;;;;;2.20;1.88;;;36.00;49.90;;;;;;4993075;28;20046;-80
2022/08/13 11:05:07;;;;;;;2.08;1.60;;;35.50;50.00;;;;;;4976145;28;20042;-78
2022/08/13 11:07:36;;;;;;;2.85;2.00;;;35.10;50.10;;;;;;4976649;28;20046;-76
2022/08/13 11:10:08;;;;;;;1.83;1.70;;;34.90;50.40;;;;;;4991914;28;20046;-76
2022/08/13 11:12:36;;;;;;;4.30;1.80;;;34.70;50.20;;;;;;4993553;28;20042;-76
2022/08/13 11:15:03;;;;;;;2.38;1.90;;;34.40;50.20;;;;;;4976032;28;20043;-77
2022/08/13 11:17:29;;;;;;;3.50;1.60;;;34.20;50.60;;;;;;4993868;28;20060;-80
2022/08/13 11:19:55;;;;;;;1.80;1.67;;;34.10;50.40;;;;;;4992561;28;20488;-77
2022/08/13 11:22:23;;;;;;;2.90;1.80;;;33.90;50.30;;;;;;4975029;28;20397;-77
2022/08/13 11:24:49;;;;;;;3.28;2.22;;;33.80;50.00;;;;;;4992808;28;20043;-79
2022/08/13 11:27:17;;;;;;;1.77;1.58;;;33.50;50.00;;;;;;4975178;28;20547;-78
2022/08/13 11:29:43;;;;;;;6.28;1.75;;;33.40;50.20;;;;;;4976029;28;20042;-76
2022/08/13 11:32:09;;;;;;;5.10;2.00;;;33.40;50.40;;;;;;4975262;28;20081;-77
2022/08/13 11:34:35;;;;;;;2.55;1.90;;;33.40;50.40;;;;;;4991656;28;20054;-80
2022/08/13 11:37:01;;;;;;;2.08;1.75;;;33.50;50.10;;;;;;4975541;28;20043;-77
2022/08/13 11:39:27;;;;;;;2.67;1.80;;;33.50;50.00;;;;;;4993055;28;20483;-79
2022/08/13 11:41:52;;;;;;;2.35;1.60;;;33.60;50.50;;;;;;4992941;28;20405;-79
2022/08/13 11:44:18;;;;;;;2.03;1.70;;;33.70;50.40;;;;;;4995046;28;20045;-77
2022/08/13 11:46:44;;;;;;;3.85;1.60;;;33.70;50.20;;;;;;4963547;28;20050;-77
2022/08/13 11:49:11;;;;;;;1.40;1.30;;;33.60;50.30;;;;;;4996243;28;20062;-76
2022/08/13 11:51:38;;;;;;;2.03;1.83;;;33.40;50.00;;;;;;4996535;28;20129;-75
2022/08/13 11:54:04;;;;;;;1.90;1.65;;;33.30;50.20;;;;;;4979219;28;20039;-76
2022/08/13 11:56:30;;;;;;;2.90;1.63;;;33.20;50.10;;;;;;4996379;28;20559;-76
2022/08/13 11:58:55;;;;;;;2.13;1.92;;;33.00;50.30;;;;;;4996341;28;20054;-78
2022/08/13 12:01:25;;;;;;;2.40;1.80;;;32.90;50.20;;;;;;4996354;28;20050;-77
2022/08/13 12:03:52;;;;;;;5.72;2.20;;;32.80;50.00;;;;;;4996206;28;20046;-77
2022/08/13 12:06:17;;;;;;;1.73;1.63;;;32.80;49.90;;;;;;4996323;28;20050;-75
2022/08/13 12:08:43;;;;;;;1.90;1.80;;;32.70;49.70;;;;;;4995984;28;20053;-76
2022/08/13 12:11:09;;;;;;;2.35;1.95;;;32.70;49.60;;;;;;4996253;28;20070;-77
2022/08/13 12:13:35;;;;;;;1.98;1.77;;;32.70;50.00;;;;;;4996416;28;20056;-78
2022/08/13 12:16:00;;;;;;;2.55;1.90;;;32.80;50.50;;;;;;4996171;28;20054;-78
2022/08/13 12:18:26;;;;;;;2.65;2.28;;;32.80;50.30;;;;;;4996398;28;20049;-76
2022/08/13 12:20:52;;;;;;;2.55;2.03;;;32.90;50.60;;;;;;4962704;28;20062;-76
2022/08/13 12:23:18;;;;;;;1.90;1.70;;;32.90;50.30;;;;;;4978611;28;20129;-76
2022/08/13 12:25:44;;;;;;;2.30;1.75;;;32.90;50.00;;;;;;4946994;28;20046;-76
2022/08/13 12:28:24;;;;;;;2.90;2.15;;;32.90;50.30;;;;;;4995705;28;20401;-77
2022/08/13 12:31:02;;;;;;;4.18;2.20;;;33.10;50.60;;;;;;4995004;28;20121;-76
2022/08/13 12:33:29;;;;;;;4.68;2.03;;;33.00;50.70;;;;;;4996016;28;20042;-76
2022/08/13 12:35:55;;;;;;;2.40;2.20;;;33.00;50.40;;;;;;4995556;28;20055;-76
2022/08/13 12:38:21;;;;;;;3.22;2.13;;;32.90;50.40;;;;;;4995738;28;20095;-76
2022/08/13 12:40:47;;;;;;;4.95;2.38;;;32.90;50.90;;;;;;4995749;28;20061;-76
2022/08/13 12:43:14;;;;;;;4.28;1.90;;;33.00;50.60;;;;;;4995759;28;20046;-76
2022/08/13 12:45:42;;;;;;;4.88;2.00;;;33.10;50.60;;;;;;4995094;28;20148;-76
2022/08/13 12:48:16;;;;;;;4.45;1.90;;;33.30;50.50;;;;;;4995413;28;20360;-76
2022/08/13 12:50:45;;;;;;;3.10;2.03;;;33.40;50.40;;;;;;4995539;28;20046;-76
2022/08/13 12:53:11;;;;;;;2.55;2.17;;;33.40;50.20;;;;;;4995395;28;20042;-76
2022/08/13 12:55:38;;;;;;;2.83;2.13;;;33.50;50.60;;;;;;4993830;28;20106;-75
2022/08/13 12:58:13;;;;;;;2.53;2.30;;;33.50;50.80;;;;;;4993953;28;20125;-76
2022/08/13 13:00:39;;;;;;;3.08;2.28;;;33.60;51.10;;;;;;4995476;28;20050;-77
2022/08/13 13:03:06;;;;;;;2.35;2.15;;;33.60;50.80;;;;;;4995643;28;20101;-76
2022/08/13 13:05:31;;;;;;;3.38;1.98;;;33.50;51.00;;;;;;4995480;28;20046;-76
2022/08/13 13:07:57;;;;;;;3.10;2.17;;;33.50;51.00;;;;;;4995353;28;20129;-76
2022/08/13 13:10:23;;;;;;;2.40;2.20;;;33.50;50.90;;;;;;4978034;28;20049;-76